Time;durP1;ratioP1;P1;durP2;ratioP2;P2;SDS_P1;SDS_P2;PMS_P1;PMS_P2;Temp;Humidity;BMP_temperature;BMP_pressure;BME280_temperature;BME280_humidity;BME280_pressure;Samples;Min_cycle;Max_cycle;Signal;HPM_P1;HPM_P2
2023/10/08 00:01:13;;;;;;;20.27;10.45;;;;;;;;;;5002851;28;20049;-39
2023/10/08 00:03:48;;;;;;;25.08;11.35;;;;;;;;;;4982981;28;20053;-39
2023/10/08 00:06:19;;;;;;;24.65;10.50;;;;;;;;;;4987516;28;20072;-39
2023/10/08 00:08:50;;;;;;;22.15;11.13;;;;;;;;;;4998188;28;20041;-38
2023/10/08 00:11:18;;;;;;;22.20;11.07;;;;;;;;;;5004205;28;20037;-39
2023/10/08 00:13:48;;;;;;;20.80;10.00;;;;;;;;;;4979001;28;20045;-39
2023/10/08 00:16:17;;;;;;;22.48;10.55;;;;;;;;;;4997301;28;20922;-39
2023/10/08 00:18:50;;;;;;;22.08;9.52;;;;;;;;;;4990990;28;20407;-39
2023/10/08 00:21:26;;;;;;;22.30;9.85;;;;;;;;;;5001499;28;20045;-40
2023/10/08 00:23:58;;;;;;;18.20;9.17;;;;;;;;;;5003778;28;20111;-39
2023/10/08 00:26:29;;;;;;;18.65;9.52;;;;;;;;;;4990877;28;20653;-39
2023/10/08 00:29:00;;;;;;;21.70;10.27;;;;;;;;;;5001207;28;20053;-39
2023/10/08 00:31:31;;;;;;;16.95;9.30;;;;;;;;;;4989158;28;20045;-39
2023/10/08 00:33:59;;;;;;;21.85;9.68;;;;;;;;;;4990644;28;20033;-39
2023/10/08 00:36:28;;;;;;;20.17;10.00;;;;;;;;;;4980694;28;20042;-38
2023/10/08 00:38:59;;;;;;;22.08;9.52;;;;;;;;;;4996809;28;20368;-39
2023/10/08 00:41:31;;;;;;;21.83;10.02;;;;;;;;;;4982148;28;20072;-39
2023/10/08 00:44:00;;;;;;;24.88;9.55;;;;;;;;;;4987000;28;20455;-39
2023/10/08 00:46:31;;;;;;;23.08;9.35;;;;;;;;;;5003098;28;20054;-38
2023/10/08 00:49:17;;;;;;;17.80;9.77;;;;;;;;;;4985777;28;20045;-38
2023/10/08 00:52:00;;;;;;;21.67;9.25;;;;;;;;;;5022502;28;20048;-38
2023/10/08 00:54:28;;;;;;;19.88;9.38;;;;;;;;;;5004115;28;20041;-38
2023/10/08 00:56:57;;;;;;;19.80;10.40;;;;;;;;;;4986748;28;20052;-39
2023/10/08 00:59:25;;;;;;;24.08;9.52;;;;;;;;;;5010270;28;20063;-39
2023/10/08 01:02:06;;;;;;;19.63;9.60;;;;;;;;;;4966414;28;20060;-39
2023/10/08 01:04:34;;;;;;;19.98;9.55;;;;;;;;;;4964940;28;20041;-39
2023/10/08 01:07:12;;;;;;;25.20;9.23;;;;;;;;;;5004703;28;20678;-39
2023/10/08 01:09:42;;;;;;;17.42;8.95;;;;;;;;;;5000406;28;20044;-40
2023/10/08 01:12:14;;;;;;;22.70;9.90;;;;;;;;;;5005589;28;20049;-39
2023/10/08 01:14:46;;;;;;;21.60;9.13;;;;;;;;;;5007290;28;20041;-39
2023/10/08 01:17:19;;;;;;;19.85;9.88;;;;;;;;;;4986912;28;20503;-39
2023/10/08 01:19:50;;;;;;;24.27;9.50;;;;;;;;;;5000812;28;20049;-39
2023/10/08 01:22:21;;;;;;;19.88;9.68;;;;;;;;;;4993130;28;20543;-39
2023/10/08 01:24:51;;;;;;;20.42;9.32;;;;;;;;;;5005588;28;20045;-39
2023/10/08 01:27:21;;;;;;;22.50;9.80;;;;;;;;;;4993143;28;20038;-38
2023/10/08 01:29:50;;;;;;;19.58;9.10;;;;;;;;;;5002256;28;20041;-39
2023/10/08 01:32:19;;;;;;;19.10;8.98;;;;;;;;;;4989788;28;20078;-39
2023/10/08 01:34:47;;;;;;;18.60;9.00;;;;;;;;;;5001488;28;20037;-39
2023/10/08 01:37:16;;;;;;;25.85;9.80;;;;;;;;;;4994834;28;20037;-39
2023/10/08 01:39:46;;;;;;;18.87;9.50;;;;;;;;;;5000347;28;20511;-39
2023/10/08 01:42:17;;;;;;;17.75;9.60;;;;;;;;;;4983519;28;20052;-39
2023/10/08 01:44:47;;;;;;;18.13;9.23;;;;;;;;;;4992244;28;20041;-39
2023/10/08 01:47:15;;;;;;;22.00;8.95;;;;;;;;;;5001507;28;21071;-39
2023/10/08 01:49:46;;;;;;;20.92;9.30;;;;;;;;;;5009937;28;20476;-39
2023/10/08 01:52:19;;;;;;;17.83;8.53;;;;;;;;;;4990590;28;20439;-39
2023/10/08 01:54:48;;;;;;;22.88;9.43;;;;;;;;;;5009010;28;20075;-40
2023/10/08 01:57:16;;;;;;;18.45;9.27;;;;;;;;;;4995933;28;20037;-38
2023/10/08 01:59:45;;;;;;;25.08;9.80;;;;;;;;;;5008497;28;20413;-38
2023/10/08 02:02:15;;;;;;;23.30;9.65;;;;;;;;;;5002443;28;20170;-39
2023/10/08 02:04:44;;;;;;;23.00;9.07;;;;;;;;;;5004156;28;20045;-39
2023/10/08 02:07:12;;;;;;;20.83;8.90;;;;;;;;;;5008418;28;20128;-41
2023/10/08 02:09:40;;;;;;;23.67;9.48;;;;;;;;;;4994925;28;20065;-39
2023/10/08 02:12:10;;;;;;;18.23;9.20;;;;;;;;;;5009318;28;20112;-39
2023/10/08 02:14:41;;;;;;;22.60;9.55;;;;;;;;;;4990868;28;20049;-39
2023/10/08 02:17:09;;;;;;;23.07;9.73;;;;;;;;;;5002129;28;21394;-39
2023/10/08 02:19:38;;;;;;;19.50;9.30;;;;;;;;;;5000365;28;20277;-38
2023/10/08 02:22:09;;;;;;;26.83;10.23;;;;;;;;;;5004892;28;20046;-39
2023/10/08 02:24:37;;;;;;;21.42;9.20;;;;;;;;;;4999321;28;20047;-39
2023/10/08 02:27:06;;;;;;;20.58;10.23;;;;;;;;;;5007898;28;20049;-39
2023/10/08 02:29:35;;;;;;;21.27;9.90;;;;;;;;;;4995099;28;20546;-39
2023/10/08 02:32:04;;;;;;;21.33;10.43;;;;;;;;;;5010623;28;20342;-39
2023/10/08 02:34:36;;;;;;;23.55;11.43;;;;;;;;;;4988397;28;20500;-39
2023/10/08 02:37:04;;;;;;;23.92;10.32;;;;;;;;;;4997950;28;20052;-39
2023/10/08 02:39:32;;;;;;;21.88;9.82;;;;;;;;;;4991792;28;20059;-40
2023/10/08 02:42:10;;;;;;;24.30;10.50;;;;;;;;;;4996074;28;20076;-40
2023/10/08 02:44:41;;;;;;;24.42;9.35;;;;;;;;;;4999898;28;20041;-39
2023/10/08 02:47:11;;;;;;;22.70;10.02;;;;;;;;;;5008573;28;20051;-39
2023/10/08 02:49:41;;;;;;;25.70;10.15;;;;;;;;;;5005731;28;20037;-39
2023/10/08 02:52:12;;;;;;;20.50;9.45;;;;;;;;;;4997167;28;20052;-40
2023/10/08 02:54:40;;;;;;;22.33;11.13;;;;;;;;;;5001218;28;20051;-39
2023/10/08 02:57:14;;;;;;;18.63;9.65;;;;;;;;;;4990319;28;20164;-38
2023/10/08 02:59:44;;;;;;;20.50;9.90;;;;;;;;;;5010284;28;20037;-39
2023/10/08 03:02:18;;;;;;;20.17;9.73;;;;;;;;;;5004245;28;20053;-40
2023/10/08 03:04:47;;;;;;;20.33;9.27;;;;;;;;;;4999078;28;20041;-39
2023/10/08 03:07:23;;;;;;;24.03;9.90;;;;;;;;;;4955044;28;20492;-39
2023/10/08 03:10:03;;;;;;;23.15;10.20;;;;;;;;;;4975056;28;20463;-42
2023/10/08 03:12:32;;;;;;;18.42;9.70;;;;;;;;;;5006079;28;20105;-39
2023/10/08 03:15:12;;;;;;;20.33;9.80;;;;;;;;;;5006952;28;20503;-39
2023/10/08 03:17:48;;;;;;;18.65;9.38;;;;;;;;;;5000191;28;20403;-38
2023/10/08 03:23:06;;;;;;;18.77;9.70;;;;;;;;;;4998329;28;20045;-38
2023/10/08 03:25:41;;;;;;;19.60;9.80;;;;;;;;;;4996370;28;20053;-38
2023/10/08 03:28:12;;;;;;;24.05;9.68;;;;;;;;;;4990604;28;20049;-38
2023/10/08 03:30:50;;;;;;;19.42;9.52;;;;;;;;;;5001277;28;20040;-40
2023/10/08 03:33:23;;;;;;;17.63;8.60;;;;;;;;;;4994043;28;20505;-39
2023/10/08 03:35:54;;;;;;;20.13;8.55;;;;;;;;;;5001032;28;20037;-39
2023/10/08 03:38:28;;;;;;;22.58;8.90;;;;;;;;;;4987620;28;20045;-38
2023/10/08 03:41:08;;;;;;;19.40;8.60;;;;;;;;;;4991376;28;21014;-38
2023/10/08 03:43:52;;;;;;;23.20;9.38;;;;;;;;;;4991989;28;20046;-39
2023/10/08 03:46:24;;;;;;;20.20;9.07;;;;;;;;;;5000817;28;20037;-39
2023/10/08 03:48:52;;;;;;;21.33;8.13;;;;;;;;;;4988522;28;20044;-38
2023/10/08 03:51:21;;;;;;;18.83;8.68;;;;;;;;;;4994367;28;20041;-39
2023/10/08 03:54:15;;;;;;;19.83;8.85;;;;;;;;;;4989550;28;20046;-39
2023/10/08 03:56:48;;;;;;;17.52;8.57;;;;;;;;;;4979148;28;20034;-38
2023/10/08 03:59:20;;;;;;;20.30;8.43;;;;;;;;;;5003043;28;20041;-39
2023/10/08 04:01:54;;;;;;;19.02;8.63;;;;;;;;;;4989472;28;20729;-39
2023/10/08 04:04:30;;;;;;;19.08;8.02;;;;;;;;;;5008229;28;20041;-38
2023/10/08 04:07:24;;;;;;;17.30;8.00;;;;;;;;;;4999073;28;20506;-38
2023/10/08 04:09:47;;;;;;;20.02;7.95;;;;;;;;;;4995643;28;20044;-38
2023/10/08 04:12:18;;;;;;;20.33;7.93;;;;;;;;;;4997735;28;20043;-38
2023/10/08 04:14:47;;;;;;;19.67;7.07;;;;;;;;;;4992301;28;20372;-38
2023/10/08 04:17:22;;;;;;;18.45;7.10;;;;;;;;;;4999350;28;20559;-38
2023/10/08 04:19:51;;;;;;;17.02;6.88;;;;;;;;;;5009430;28;20049;-38
2023/10/08 04:22:18;;;;;;;18.75;7.35;;;;;;;;;;5000624;28;20151;-39
2023/10/08 04:24:50;;;;;;;17.93;7.53;;;;;;;;;;4995486;28;20045;-40
2023/10/08 04:27:21;;;;;;;19.05;7.40;;;;;;;;;;5005150;28;20077;-39
2023/10/08 04:29:50;;;;;;;17.08;7.22;;;;;;;;;;4991630;28;20041;-38
2023/10/08 04:32:24;;;;;;;19.15;7.45;;;;;;;;;;5006902;28;20503;-39
2023/10/08 04:34:56;;;;;;;16.08;7.10;;;;;;;;;;4985377;28;20045;-38
2023/10/08 04:37:32;;;;;;;17.20;7.20;;;;;;;;;;4998973;28;20045;-39
2023/10/08 04:39:59;;;;;;;14.93;7.10;;;;;;;;;;5003500;28;20049;-38
2023/10/08 04:42:27;;;;;;;17.17;7.93;;;;;;;;;;5010680;28;20052;-39
2023/10/08 04:44:58;;;;;;;15.43;7.30;;;;;;;;;;5010157;28;20559;-38
2023/10/08 04:47:35;;;;;;;19.48;6.95;;;;;;;;;;5032515;28;20095;-39
2023/10/08 04:50:06;;;;;;;15.13;7.00;;;;;;;;;;5002047;28;20459;-39
2023/10/08 04:52:45;;;;;;;16.80;6.80;;;;;;;;;;5001854;28;20046;-39
2023/10/08 04:55:19;;;;;;;13.82;6.38;;;;;;;;;;5000645;28;20041;-39
2023/10/08 04:57:49;;;;;;;15.55;6.88;;;;;;;;;;4999601;28;20045;-38
2023/10/08 05:00:40;;;;;;;16.92;6.80;;;;;;;;;;4990686;28;20456;-40
2023/10/08 05:03:13;;;;;;;14.60;6.60;;;;;;;;;;5011533;28;20091;-39
2023/10/08 05:06:02;;;;;;;15.27;6.30;;;;;;;;;;5000697;28;20100;-38
2023/10/08 05:08:32;;;;;;;14.10;6.10;;;;;;;;;;4992273;28;20057;-39
2023/10/08 05:14:05;;;;;;;13.95;6.38;;;;;;;;;;4963399;28;20892;-39
2023/10/08 05:16:44;;;;;;;15.07;6.43;;;;;;;;;;4996824;28;20041;-39
2023/10/08 05:19:37;;;;;;;14.30;7.00;;;;;;;;;;5001969;28;20056;-43
2023/10/08 05:22:17;;;;;;;15.02;6.45;;;;;;;;;;4998239;28;20498;-38
2023/10/08 05:25:05;;;;;;;17.05;7.57;;;;;;;;;;5000688;28;20504;-38
2023/10/08 05:27:56;;;;;;;18.00;6.30;;;;;;;;;;4990985;28;20051;-39
2023/10/08 05:30:38;;;;;;;14.67;6.00;;;;;;;;;;5003493;28;20522;-38
2023/10/08 05:33:06;;;;;;;14.48;6.38;;;;;;;;;;5002415;28;20507;-39
2023/10/08 05:35:54;;;;;;;15.73;7.20;;;;;;;;;;4993465;28;20041;-39
2023/10/08 05:38:23;;;;;;;13.98;6.50;;;;;;;;;;5033804;28;20056;-38
2023/10/08 05:41:27;;;;;;;14.23;7.00;;;;;;;;;;4992911;28;20048;-38
2023/10/08 06:08:10;;;;;;;11.93;5.67;;;;;;;;;;6272373;22;20023;-39
2023/10/08 06:10:51;;;;;;;14.70;5.93;;;;;;;;;;6283857;22;20034;-40
2023/10/08 06:13:29;;;;;;;13.05;5.78;;;;;;;;;;6281529;22;20052;-39
2023/10/08 06:16:05;;;;;;;14.43;5.75;;;;;;;;;;6281086;22;20039;-41
2023/10/08 06:18:32;;;;;;;10.82;5.97;;;;;;;;;;6279200;22;20007;-40
2023/10/08 06:21:08;;;;;;;13.77;5.97;;;;;;;;;;6277201;22;20031;-41
2023/10/08 06:23:38;;;;;;;12.95;5.72;;;;;;;;;;6288398;22;20093;-40
2023/10/08 06:26:13;;;;;;;12.68;5.80;;;;;;;;;;6270321;22;20043;-39
2023/10/08 06:28:43;;;;;;;13.88;6.20;;;;;;;;;;6261603;22;20449;-39
2023/10/08 06:31:16;;;;;;;14.32;5.65;;;;;;;;;;6275076;22;20019;-39
2023/10/08 06:33:45;;;;;;;12.40;5.83;;;;;;;;;;6282528;22;20420;-40
2023/10/08 06:36:16;;;;;;;11.52;5.32;;;;;;;;;;6281872;22;20511;-40
2023/10/08 06:38:48;;;;;;;10.00;4.70;;;;;;;;;;6275682;22;20011;-40
2023/10/08 06:41:17;;;;;;;13.40;5.05;;;;;;;;;;6286186;22;20430;-39
2023/10/08 06:44:06;;;;;;;12.70;5.18;;;;;;;;;;6280765;22;20038;-39
2023/10/08 06:46:34;;;;;;;12.83;5.10;;;;;;;;;;6278055;22;20243;-40
2023/10/08 06:49:03;;;;;;;13.88;5.20;;;;;;;;;;6276642;22;20093;-39
2023/10/08 06:51:32;;;;;;;19.23;6.00;;;;;;;;;;6283969;22;20069;-44
2023/10/08 06:54:03;;;;;;;11.30;5.07;;;;;;;;;;6274926;22;20018;-39
2023/10/08 06:56:32;;;;;;;11.38;4.28;;;;;;;;;;6285683;22;20022;-39
2023/10/08 06:59:01;;;;;;;11.07;4.80;;;;;;;;;;6280244;22;20043;-40
2023/10/08 07:01:38;;;;;;;14.52;5.25;;;;;;;;;;6267485;22;20050;-40
2023/10/08 07:04:11;;;;;;;12.10;5.22;;;;;;;;;;6274671;22;20098;-39
2023/10/08 07:06:42;;;;;;;13.70;5.40;;;;;;;;;;6267842;22;20011;-39
2023/10/08 07:09:22;;;;;;;12.70;4.97;;;;;;;;;;6272337;22;20077;-39
2023/10/08 07:11:54;;;;;;;10.10;5.03;;;;;;;;;;6249073;22;20019;-39
2023/10/08 07:14:26;;;;;;;10.90;5.18;;;;;;;;;;6278385;22;20039;-39
2023/10/08 07:16:58;;;;;;;13.15;5.10;;;;;;;;;;6277142;22;20485;-39
2023/10/08 07:19:32;;;;;;;12.70;5.50;;;;;;;;;;6264174;22;20023;-39
2023/10/08 07:22:05;;;;;;;13.63;5.88;;;;;;;;;;6269203;22;20077;-41
2023/10/08 07:24:36;;;;;;;14.87;5.60;;;;;;;;;;6277991;22;20022;-39
2023/10/08 07:27:08;;;;;;;15.27;6.28;;;;;;;;;;6269023;22;20015;-40
2023/10/08 07:29:36;;;;;;;13.95;5.60;;;;;;;;;;6274992;22;20025;-39
2023/10/08 07:32:09;;;;;;;10.40;4.50;;;;;;;;;;6266830;22;20011;-40
2023/10/08 07:34:38;;;;;;;13.55;5.13;;;;;;;;;;6275822;22;20512;-40
2023/10/08 07:37:06;;;;;;;14.07;6.10;;;;;;;;;;6272341;22;20031;-40
2023/10/08 07:39:36;;;;;;;12.20;5.00;;;;;;;;;;6266999;22;20814;-39
2023/10/08 07:42:07;;;;;;;9.80;4.30;;;;;;;;;;6279548;22;20022;-41
2023/10/08 07:44:36;;;;;;;8.73;4.20;;;;;;;;;;6272596;22;20011;-39
2023/10/08 07:47:09;;;;;;;9.88;4.18;;;;;;;;;;6268219;22;20015;-39
2023/10/08 07:49:38;;;;;;;11.33;4.63;;;;;;;;;;6270969;22;20023;-39
2023/10/08 07:52:05;;;;;;;11.18;5.00;;;;;;;;;;6265202;22;20026;-40
2023/10/08 07:54:34;;;;;;;13.68;5.72;;;;;;;;;;6282223;22;20065;-40
2023/10/08 07:57:09;;;;;;;12.10;5.38;;;;;;;;;;6233604;22;20852;-40
2023/10/08 07:59:41;;;;;;;12.90;4.93;;;;;;;;;;6274178;22;20039;-40
2023/10/08 08:02:11;;;;;;;11.63;5.20;;;;;;;;;;6272392;22;20022;-40
2023/10/08 08:04:39;;;;;;;11.52;5.45;;;;;;;;;;6277700;22;20438;-40
2023/10/08 08:07:15;;;;;;;16.50;5.15;;;;;;;;;;6276246;22;20368;-40
2023/10/08 08:09:50;;;;;;;13.90;5.85;;;;;;;;;;6268134;22;20377;-41
2023/10/08 08:12:21;;;;;;;12.80;5.43;;;;;;;;;;6271856;22;20080;-40
2023/10/08 08:14:50;;;;;;;13.13;5.13;;;;;;;;;;6265314;22;20128;-39
2023/10/08 08:17:18;;;;;;;13.48;5.53;;;;;;;;;;6282741;22;20011;-39
2023/10/08 08:19:47;;;;;;;11.98;4.25;;;;;;;;;;6265265;22;20053;-40
2023/10/08 08:22:20;;;;;;;12.18;5.13;;;;;;;;;;6267040;22;20025;-41
2023/10/08 08:24:54;;;;;;;12.00;4.88;;;;;;;;;;6262990;22;20015;-39
2023/10/08 08:27:31;;;;;;;12.83;4.90;;;;;;;;;;6272655;22;20011;-40
2023/10/08 08:30:09;;;;;;;13.40;4.95;;;;;;;;;;6260728;22;20030;-40
2023/10/08 08:32:39;;;;;;;16.23;5.47;;;;;;;;;;6269062;22;20454;-40
2023/10/08 08:35:09;;;;;;;11.25;5.20;;;;;;;;;;6263953;22;20023;-40
2023/10/08 08:37:38;;;;;;;10.48;4.93;;;;;;;;;;6275302;22;20509;-40
2023/10/08 08:40:09;;;;;;;12.67;5.27;;;;;;;;;;6261243;22;20305;-40
2023/10/08 08:42:38;;;;;;;14.40;5.07;;;;;;;;;;6274837;22;20423;-41
2023/10/08 08:45:10;;;;;;;11.40;6.03;;;;;;;;;;6263424;22;20480;-40
2023/10/08 08:47:40;;;;;;;12.85;6.43;;;;;;;;;;6281303;22;20023;-40
2023/10/08 08:50:09;;;;;;;14.25;6.15;;;;;;;;;;6237024;22;20369;-39
2023/10/08 08:52:37;;;;;;;13.40;6.20;;;;;;;;;;6244493;22;20019;-39
2023/10/08 08:55:09;;;;;;;14.93;6.40;;;;;;;;;;6268629;22;20065;-39
2023/10/08 08:57:39;;;;;;;14.80;6.40;;;;;;;;;;6269023;22;20026;-39
2023/10/08 09:00:11;;;;;;;11.88;6.65;;;;;;;;;;6272574;22;20042;-39
2023/10/08 09:02:40;;;;;;;17.25;6.93;;;;;;;;;;6279142;22;20022;-39
2023/10/08 09:05:23;;;;;;;12.70;7.00;;;;;;;;;;6270577;22;20039;-39
2023/10/08 09:07:56;;;;;;;14.38;8.18;;;;;;;;;;6275105;22;20428;-39
2023/10/08 09:10:28;;;;;;;21.27;10.07;;;;;;;;;;6268128;22;20423;-39
2023/10/08 09:12:58;;;;;;;19.92;11.90;;;;;;;;;;6263845;22;20316;-39
2023/10/08 09:15:27;;;;;;;20.42;10.85;;;;;;;;;;6265696;22;20785;-39
2023/10/08 09:17:55;;;;;;;19.87;9.47;;;;;;;;;;6266937;22;20022;-39
2023/10/08 09:20:24;;;;;;;21.25;9.52;;;;;;;;;;6277046;22;20508;-40
2023/10/08 09:23:07;;;;;;;13.80;7.65;;;;;;;;;;6258797;22;20030;-39
2023/10/08 09:25:35;;;;;;;12.95;6.30;;;;;;;;;;6273118;22;20318;-40
2023/10/08 09:28:07;;;;;;;19.00;7.28;;;;;;;;;;6261131;22;20219;-39
2023/10/08 09:30:37;;;;;;;12.97;5.40;;;;;;;;;;6272687;22;20497;-39
2023/10/08 09:33:07;;;;;;;15.23;5.70;;;;;;;;;;6264642;22;20102;-40
2023/10/08 09:35:36;;;;;;;12.07;5.30;;;;;;;;;;6247117;22;20023;-39
2023/10/08 09:38:04;;;;;;;11.95;4.45;;;;;;;;;;6264588;22;20025;-40
2023/10/08 09:40:32;;;;;;;13.57;5.43;;;;;;;;;;6243836;22;20023;-39
2023/10/08 09:43:02;;;;;;;11.90;4.90;;;;;;;;;;6271872;22;20011;-39
2023/10/08 09:45:31;;;;;;;14.88;4.88;;;;;;;;;;6268771;22;20018;-39
2023/10/08 09:47:59;;;;;;;10.68;4.70;;;;;;;;;;6266354;22;20022;-39
2023/10/08 09:50:33;;;;;;;10.43;4.60;;;;;;;;;;6265054;22;20073;-39
2023/10/08 09:53:04;;;;;;;11.65;4.82;;;;;;;;;;6259530;22;20090;-40
2023/10/08 09:55:31;;;;;;;11.17;4.97;;;;;;;;;;6262257;22;20025;-40
2023/10/08 09:57:59;;;;;;;10.88;4.55;;;;;;;;;;6271183;22;20465;-40
2023/10/08 10:00:31;;;;;;;12.07;4.53;;;;;;;;;;6250840;22;20773;-40
2023/10/08 10:03:02;;;;;;;10.95;3.92;;;;;;;;;;6278483;22;20421;-41
2023/10/08 10:05:30;;;;;;;16.77;4.68;;;;;;;;;;6264805;22;20011;-39
2023/10/08 10:07:59;;;;;;;11.33;4.47;;;;;;;;;;6270347;22;20015;-39
2023/10/08 10:10:27;;;;;;;11.02;4.30;;;;;;;;;;6270610;22;20027;-42
2023/10/08 10:12:59;;;;;;;11.63;4.85;;;;;;;;;;6262858;22;20022;-42
2023/10/08 10:15:26;;;;;;;11.65;4.60;;;;;;;;;;6272498;22;20387;-40
2023/10/08 10:18:09;;;;;;;9.70;4.68;;;;;;;;;;6273326;22;20073;-42
2023/10/08 10:20:40;;;;;;;14.27;4.83;;;;;;;;;;6273131;22;20015;-40
2023/10/08 10:23:22;;;;;;;14.02;4.47;;;;;;;;;;6271586;22;20442;-39
2023/10/08 10:25:54;;;;;;;10.25;4.20;;;;;;;;;;6269524;22;20107;-41
2023/10/08 10:28:25;;;;;;;12.35;4.85;;;;;;;;;;6265771;22;20094;-41
2023/10/08 10:30:53;;;;;;;9.48;4.28;;;;;;;;;;6270544;22;20416;-40
2023/10/08 10:33:23;;;;;;;11.50;4.30;;;;;;;;;;6264761;22;20015;-40
2023/10/08 10:35:54;;;;;;;12.20;4.35;;;;;;;;;;6268951;22;20691;-40
2023/10/08 10:38:26;;;;;;;9.10;4.10;;;;;;;;;;6273679;22;20050;-39
2023/10/08 10:40:57;;;;;;;12.70;3.85;;;;;;;;;;6272201;22;20094;-40
2023/10/08 10:43:32;;;;;;;8.43;3.17;;;;;;;;;;6277196;22;20012;-40
2023/10/08 10:46:24;;;;;;;11.63;4.00;;;;;;;;;;6272212;22;20019;-39
2023/10/08 10:49:18;;;;;;;10.85;3.78;;;;;;;;;;6278120;22;20106;-40
2023/10/08 10:51:46;;;;;;;10.23;3.42;;;;;;;;;;6276397;22;20019;-41
2023/10/08 10:54:21;;;;;;;11.98;3.70;;;;;;;;;;6271011;22;20022;-40
2023/10/08 10:56:52;;;;;;;16.73;4.97;;;;;;;;;;6270388;22;20015;-42
2023/10/08 10:59:27;;;;;;;15.50;5.37;;;;;;;;;;6271254;22;20019;-39
2023/10/08 11:02:05;;;;;;;8.95;3.38;;;;;;;;;;6272702;22;20029;-40
2023/10/08 11:04:47;;;;;;;9.23;3.08;;;;;;;;;;6269868;22;20064;-41
2023/10/08 11:07:16;;;;;;;6.80;2.80;;;;;;;;;;6276312;22;20023;-40
2023/10/08 11:09:45;;;;;;;8.82;3.20;;;;;;;;;;6275020;22;20386;-40
2023/10/08 11:12:18;;;;;;;8.27;2.73;;;;;;;;;;6273529;22;20019;-40
2023/10/08 11:14:47;;;;;;;56.38;8.38;;;;;;;;;;6275252;22;20066;-41
2023/10/08 11:17:16;;;;;;;9.80;3.03;;;;;;;;;;6282774;22;20026;-40
2023/10/08 11:19:46;;;;;;;8.63;3.35;;;;;;;;;;6234871;22;20020;-40
2023/10/08 11:22:17;;;;;;;25.02;2.95;;;;;;;;;;6274330;22;20026;-41
2023/10/08 11:24:47;;;;;;;8.20;3.10;;;;;;;;;;6267319;22;20046;-40
2023/10/08 11:27:28;;;;;;;11.48;3.10;;;;;;;;;;6277418;22;20095;-40
2023/10/08 11:29:57;;;;;;;9.50;3.20;;;;;;;;;;6278300;22;20060;-40
2023/10/08 11:32:26;;;;;;;7.53;2.25;;;;;;;;;;6272649;22;20025;-40
2023/10/08 11:35:00;;;;;;;9.93;2.75;;;;;;;;;;6264630;22;20553;-40
2023/10/08 11:37:29;;;;;;;8.13;2.60;;;;;;;;;;6267808;22;20015;-40
2023/10/08 11:39:58;;;;;;;8.48;2.67;;;;;;;;;;6231905;22;20023;-40
2023/10/08 11:42:43;;;;;;;8.18;2.47;;;;;;;;;;6272654;22;20509;-40
2023/10/08 11:45:26;;;;;;;6.78;2.22;;;;;;;;;;6266296;22;20019;-40
2023/10/08 11:47:56;;;;;;;9.88;3.28;;;;;;;;;;6273467;22;20610;-40
2023/10/08 11:50:31;;;;;;;6.87;2.47;;;;;;;;;;6272101;22;20318;-40
2023/10/08 11:53:02;;;;;;;6.07;2.50;;;;;;;;;;6274167;22;20019;-40
2023/10/08 11:55:35;;;;;;;6.45;2.30;;;;;;;;;;6272906;22;20019;-40
2023/10/08 11:58:09;;;;;;;7.15;2.17;;;;;;;;;;6271137;22;20019;-40
2023/10/08 12:00:43;;;;;;;7.05;2.65;;;;;;;;;;6243545;22;20019;-40
2023/10/08 12:03:17;;;;;;;7.07;2.60;;;;;;;;;;6245123;22;20426;-40
2023/10/08 12:05:49;;;;;;;6.28;2.53;;;;;;;;;;6270152;22;20069;-40
2023/10/08 12:08:20;;;;;;;7.63;2.55;;;;;;;;;;6269366;22;20519;-39
2023/10/08 12:10:54;;;;;;;8.00;2.83;;;;;;;;;;6274728;22;20592;-40
2023/10/08 12:13:24;;;;;;;7.38;2.58;;;;;;;;;;6271638;22;20058;-40
2023/10/08 12:16:05;;;;;;;8.27;2.70;;;;;;;;;;6281086;22;20285;-41
2023/10/08 12:18:39;;;;;;;10.45;3.63;;;;;;;;;;6245443;22;20029;-40
2023/10/08 12:21:10;;;;;;;8.02;2.78;;;;;;;;;;6269579;22;20061;-41
2023/10/08 12:23:39;;;;;;;8.02;2.72;;;;;;;;;;6281444;22;20042;-40
2023/10/08 12:26:07;;;;;;;7.10;2.70;;;;;;;;;;6237859;22;20023;-39
2023/10/08 12:28:36;;;;;;;8.07;3.00;;;;;;;;;;6275988;22;20019;-40
2023/10/08 12:31:04;;;;;;;8.35;2.72;;;;;;;;;;6254787;22;20012;-40
2023/10/08 12:33:33;;;;;;;7.07;2.75;;;;;;;;;;6256671;22;20496;-40
2023/10/08 12:36:10;;;;;;;8.52;2.70;;;;;;;;;;6275731;22;20015;-40
2023/10/08 12:38:41;;;;;;;8.82;2.88;;;;;;;;;;6270712;22;20050;-42
2023/10/08 12:41:18;;;;;;;8.50;3.17;;;;;;;;;;6274381;22;20025;-40
2023/10/08 12:43:46;;;;;;;7.32;2.88;;;;;;;;;;6269484;22;20493;-41
2023/10/08 12:46:23;;;;;;;8.77;2.92;;;;;;;;;;6270168;22;20011;-40
2023/10/08 12:48:53;;;;;;;7.88;2.70;;;;;;;;;;6273007;22;20015;-41
2023/10/08 12:51:24;;;;;;;6.18;2.67;;;;;;;;;;6274888;22;20029;-40
2023/10/08 12:54:03;;;;;;;7.60;2.63;;;;;;;;;;6271232;22;20041;-40
2023/10/08 12:56:38;;;;;;;10.80;3.92;;;;;;;;;;6264378;22;20015;-45
2023/10/08 12:59:06;;;;;;;7.75;2.72;;;;;;;;;;6263239;22;20022;-40
2023/10/08 13:01:36;;;;;;;7.53;3.75;;;;;;;;;;6264411;22;20019;-40
2023/10/08 13:04:07;;;;;;;8.63;2.90;;;;;;;;;;6271189;22;20370;-41
2023/10/08 13:06:37;;;;;;;6.97;2.90;;;;;;;;;;6258711;22;20029;-42
2023/10/08 13:09:12;;;;;;;8.52;3.13;;;;;;;;;;6239120;22;20022;-40
2023/10/08 13:11:42;;;;;;;9.27;3.53;;;;;;;;;;6256782;22;20073;-43
2023/10/08 13:14:11;;;;;;;7.68;3.30;;;;;;;;;;6277934;22;20026;-40
2023/10/08 13:16:40;;;;;;;6.22;2.90;;;;;;;;;;6275993;22;20480;-40
2023/10/08 13:19:09;;;;;;;5.73;2.70;;;;;;;;;;6278917;22;20019;-41
2023/10/08 13:21:38;;;;;;;10.73;3.10;;;;;;;;;;6266241;22;20098;-42
2023/10/08 13:24:08;;;;;;;10.13;3.17;;;;;;;;;;6257932;22;20407;-42
2023/10/08 13:26:38;;;;;;;11.25;2.67;;;;;;;;;;6278332;22;20461;-40
2023/10/08 13:29:09;;;;;;;9.52;3.65;;;;;;;;;;6266309;22;20606;-40
2023/10/08 13:31:39;;;;;;;8.33;3.47;;;;;;;;;;6272511;22;20090;-42
2023/10/08 13:34:10;;;;;;;6.90;3.05;;;;;;;;;;6274245;22;20486;-41
2023/10/08 13:36:39;;;;;;;7.22;2.80;;;;;;;;;;6268494;22;20529;-40
2023/10/08 13:39:09;;;;;;;8.95;3.40;;;;;;;;;;6271750;22;20015;-41
2023/10/08 13:41:41;;;;;;;7.53;3.05;;;;;;;;;;6270736;22;20015;-40
2023/10/08 13:44:12;;;;;;;10.80;3.13;;;;;;;;;;6220572;22;20023;-40
2023/10/08 13:46:48;;;;;;;8.07;2.80;;;;;;;;;;6273959;22;20049;-41
2023/10/08 13:49:18;;;;;;;8.15;2.47;;;;;;;;;;6276478;22;20108;-43
2023/10/08 13:51:49;;;;;;;7.13;2.70;;;;;;;;;;6271311;22;20042;-41
2023/10/08 13:54:29;;;;;;;7.53;2.70;;;;;;;;;;6252133;22;20023;-41
2023/10/08 13:56:57;;;;;;;9.27;3.50;;;;;;;;;;6259159;22;20081;-41
2023/10/08 13:59:30;;;;;;;6.82;2.72;;;;;;;;;;6225752;22;20046;-41
2023/10/08 14:02:01;;;;;;;7.30;2.83;;;;;;;;;;6198809;22;20426;-40
2023/10/08 14:04:34;;;;;;;8.40;2.83;;;;;;;;;;6246090;22;20011;-40
2023/10/08 14:07:04;;;;;;;7.50;2.60;;;;;;;;;;6247818;22;20640;-40
2023/10/08 14:09:37;;;;;;;7.67;2.97;;;;;;;;;;6236142;22;20351;-41
2023/10/08 14:12:07;;;;;;;9.27;2.60;;;;;;;;;;6266163;22;20380;-40
2023/10/08 14:14:35;;;;;;;8.50;2.05;;;;;;;;;;6262281;22;20046;-40
2023/10/08 14:17:05;;;;;;;6.00;2.13;;;;;;;;;;6272293;22;20396;-41
2023/10/08 14:19:39;;;;;;;6.78;2.88;;;;;;;;;;6274194;22;20022;-40
2023/10/08 14:22:13;;;;;;;8.63;3.00;;;;;;;;;;6237834;22;20042;-42
2023/10/08 14:24:45;;;;;;;6.80;2.53;;;;;;;;;;6270743;22;20035;-42
2023/10/08 14:27:15;;;;;;;9.70;2.58;;;;;;;;;;6280672;22;20173;-40
2023/10/08 14:29:49;;;;;;;7.63;2.65;;;;;;;;;;6273541;22;20073;-41
2023/10/08 14:32:19;;;;;;;8.80;2.47;;;;;;;;;;6274473;22;20030;-42
2023/10/08 14:43:11;;;;;;;6.70;2.95;;;;;;;;;;6272692;22;20021;-42
2023/10/08 14:45:40;;;;;;;6.28;2.65;;;;;;;;;;6266619;22;20106;-41
2023/10/08 14:48:11;;;;;;;5.87;2.00;;;;;;;;;;6252618;22;20051;-40
2023/10/08 14:50:41;;;;;;;7.72;2.85;;;;;;;;;;6268684;22;20077;-40
2023/10/08 14:53:10;;;;;;;5.28;1.60;;;;;;;;;;6277406;22;20026;-40
2023/10/08 14:55:40;;;;;;;8.75;2.90;;;;;;;;;;6261796;22;20369;-40
2023/10/08 14:58:08;;;;;;;7.50;2.63;;;;;;;;;;6272059;22;20019;-41
2023/10/08 15:00:37;;;;;;;8.03;3.30;;;;;;;;;;6266384;22;20019;-41
2023/10/08 15:03:06;;;;;;;7.03;3.05;;;;;;;;;;6265622;22;20446;-41
2023/10/08 15:05:36;;;;;;;7.25;3.10;;;;;;;;;;6271607;22;20453;-41
2023/10/08 15:08:09;;;;;;;7.18;2.83;;;;;;;;;;6242462;22;20460;-40
2023/10/08 15:10:37;;;;;;;6.80;2.10;;;;;;;;;;6276089;22;20015;-41
2023/10/08 15:13:07;;;;;;;10.87;2.60;;;;;;;;;;6261078;22;20428;-41
2023/10/08 15:15:36;;;;;;;6.75;1.98;;;;;;;;;;6275606;22;20469;-41
2023/10/08 15:18:07;;;;;;;7.93;3.40;;;;;;;;;;6261645;22;20422;-42
2023/10/08 15:20:35;;;;;;;6.43;2.53;;;;;;;;;;6273257;22;20615;-40
2023/10/08 15:23:04;;;;;;;6.88;2.38;;;;;;;;;;6277340;22;20241;-42
2023/10/08 15:25:33;;;;;;;6.00;2.40;;;;;;;;;;6280087;22;20394;-44
2023/10/08 15:28:04;;;;;;;6.45;2.30;;;;;;;;;;6276716;22;20068;-43
2023/10/08 15:30:33;;;;;;;6.80;2.70;;;;;;;;;;6266608;22;20726;-41
2023/10/08 15:33:01;;;;;;;7.28;2.97;;;;;;;;;;6274418;22;20054;-41
2023/10/08 15:35:29;;;;;;;7.38;2.85;;;;;;;;;;6269017;22;20488;-40
2023/10/08 15:37:56;;;;;;;6.03;2.53;;;;;;;;;;6275634;22;20339;-41
2023/10/08 15:40:24;;;;;;;5.72;2.20;;;;;;;;;;6233214;22;20023;-40